Time;durP1;ratioP1;P1;durP2;ratioP2;P2;SDS_P1;SDS_P2;PMS_P1;PMS_P2;Temp;Humidity;BMP_temperature;BMP_pressure;BME280_temperature;BME280_humidity;BME280_pressure;Samples;Min_cycle;Max_cycle;Signal;HPM_P1;HPM_P2
2021/07/22 00:01:21;;;;;;;39.88;24.20;;;18.10;99.90;;;;;;5011985;28;20030;-73
2021/07/22 00:03:46;;;;;;;41.78;24.27;;;18.10;99.90;;;;;;5012319;28;20018;-73
2021/07/22 00:06:12;;;;;;;42.20;24.95;;;18.00;99.90;;;;;;5011885;28;20501;-73
2021/07/22 00:08:37;;;;;;;45.78;25.45;;;18.00;99.90;;;;;;5012474;28;20478;-72
2021/07/22 00:11:06;;;;;;;40.38;23.92;;;17.90;99.90;;;;;;5012175;28;20061;-73
2021/07/22 00:13:32;;;;;;;39.28;24.50;;;17.90;99.90;;;;;;5013033;28;20033;-74
2021/07/22 00:15:58;;;;;;;38.58;23.70;;;17.80;99.90;;;;;;5014282;28;20489;-74
2021/07/22 00:18:23;;;;;;;41.10;24.20;;;17.80;99.90;;;;;;5014991;28;20033;-72
2021/07/22 00:20:49;;;;;;;44.85;25.80;;;17.70;99.90;;;;;;5011173;28;20026;-74
2021/07/22 00:23:15;;;;;;;43.53;25.77;;;18.20;99.90;;;;;;5012238;28;20071;-72
2021/07/22 00:25:42;;;;;;;46.20;26.10;;;17.70;99.90;;;;;;5012289;28;20022;-72
2021/07/22 00:28:08;;;;;;;42.28;25.23;;;17.70;99.90;;;;;;5011301;28;20456;-71
2021/07/22 00:30:34;;;;;;;41.70;23.92;;;17.70;99.90;;;;;;5012930;28;20108;-74
2021/07/22 00:33:01;;;;;;;43.45;24.88;;;17.90;99.90;;;;;;5013297;28;20061;-73
2021/07/22 00:35:26;;;;;;;52.78;25.38;;;18.30;99.90;;;;;;5011230;28;20057;-73
2021/07/22 00:37:52;;;;;;;41.28;25.05;;;17.50;99.90;;;;;;5011819;28;20478;-74
2021/07/22 00:40:18;;;;;;;39.33;23.35;;;17.50;99.90;;;;;;5012561;28;20026;-73
2021/07/22 00:43:00;;;;;;;44.28;25.10;;;17.50;99.90;;;;;;5015177;28;20036;-73
2021/07/22 00:45:27;;;;;;;45.63;24.48;;;17.40;99.90;;;;;;5015780;28;20105;-73
2021/07/22 00:47:53;;;;;;;44.03;24.17;;;17.50;99.90;;;;;;5015725;28;20075;-71
2021/07/22 00:50:19;;;;;;;38.67;24.50;;;17.70;99.90;;;;;;5015224;28;20038;-72
2021/07/22 00:52:44;;;;;;;42.85;24.15;;;17.30;99.90;;;;;;5015833;28;20539;-72
2021/07/22 00:55:13;;;;;;;38.28;24.15;;;17.80;99.90;;;;;;5015796;28;20378;-73
2021/07/22 00:57:39;;;;;;;39.60;23.75;;;17.30;99.90;;;;;;5015102;28;20544;-74
2021/07/22 01:00:05;;;;;;;37.22;21.95;;;17.30;99.90;;;;;;5015578;28;20038;-74
2021/07/22 01:02:30;;;;;;;35.22;21.83;;;17.30;99.90;;;;;;5015107;28;20032;-73
2021/07/22 01:04:59;;;;;;;38.38;23.40;;;18.20;99.90;;;;;;5015302;28;20390;-73
2021/07/22 01:07:34;;;;;;;37.40;23.13;;;17.20;99.90;;;;;;5015608;28;20476;-74
2021/07/22 01:10:00;;;;;;;39.20;23.73;;;17.20;99.90;;;;;;5014775;28;20088;-73
2021/07/22 01:12:25;;;;;;;38.47;22.40;;;17.20;99.90;;;;;;5015345;28;20046;-73
2021/07/22 01:14:51;;;;;;;41.10;22.38;;;17.40;99.90;;;;;;5015306;28;20432;-73
2021/07/22 01:17:40;;;;;;;36.42;21.77;;;17.10;99.90;;;;;;5014645;28;20440;-73
2021/07/22 01:20:18;;;;;;;55.65;23.77;;;17.10;99.90;;;;;;5015001;28;20064;-72
2021/07/22 01:22:45;;;;;;;37.70;21.88;;;17.10;99.90;;;;;;5015034;28;20032;-73
2021/07/22 01:25:11;;;;;;;32.63;20.73;;;17.00;99.90;;;;;;5014494;28;20104;-73
2021/07/22 01:27:37;;;;;;;39.17;20.42;;;17.00;99.90;;;;;;5015199;28;20116;-72
2021/07/22 01:30:04;;;;;;;32.78;21.23;;;17.00;99.90;;;;;;5015258;28;20101;-73
2021/07/22 01:32:29;;;;;;;35.58;20.52;;;17.00;99.90;;;;;;5014443;28;20030;-72
2021/07/22 01:34:55;;;;;;;33.97;20.88;;;17.70;99.90;;;;;;5015714;28;20021;-73
2021/07/22 01:37:21;;;;;;;32.92;20.35;;;16.90;99.90;;;;;;5015361;28;20446;-73
2021/07/22 01:39:47;;;;;;;34.53;19.40;;;16.90;99.90;;;;;;5013776;28;20037;-73
2021/07/22 01:42:12;;;;;;;34.90;19.73;;;16.80;99.90;;;;;;5015085;28;20058;-73
2021/07/22 01:44:38;;;;;;;34.25;19.88;;;16.90;99.90;;;;;;5014367;28;20022;-73
2021/07/22 01:47:04;;;;;;;32.92;21.27;;;16.80;99.90;;;;;;5015163;28;20026;-73
2021/07/22 01:49:30;;;;;;;30.77;19.55;;;16.80;99.90;;;;;;5014867;28;20474;-74
2021/07/22 01:51:55;;;;;;;34.97;20.13;;;16.70;99.90;;;;;;5013346;28;20504;-72
2021/07/22 01:54:21;;;;;;;31.25;19.15;;;16.70;99.90;;;;;;5014778;28;20022;-74
2021/07/22 01:56:47;;;;;;;36.58;19.52;;;16.80;99.90;;;;;;5014350;28;20041;-74
2021/07/22 01:59:13;;;;;;;31.88;19.15;;;17.70;99.90;;;;;;5013788;28;20381;-73
2021/07/22 02:01:38;;;;;;;33.50;19.73;;;17.40;99.90;;;;;;5014611;28;20034;-74
2021/07/22 02:04:04;;;;;;;33.95;20.58;;;16.60;99.90;;;;;;5014369;28;20021;-72
2021/07/22 02:06:32;;;;;;;35.42;19.33;;;16.90;99.90;;;;;;5013919;28;20116;-73
2021/07/22 02:08:58;;;;;;;35.92;21.20;;;16.60;99.90;;;;;;5014239;28;20046;-73
2021/07/22 02:11:24;;;;;;;36.03;21.10;;;16.50;99.90;;;;;;5014186;28;20081;-73
2021/07/22 02:13:49;;;;;;;37.95;21.23;;;16.80;99.90;;;;;;5013499;28;20030;-73
2021/07/22 02:16:15;;;;;;;35.15;21.95;;;16.50;99.90;;;;;;5014737;28;20040;-73
2021/07/22 02:18:41;;;;;;;33.20;20.25;;;16.50;99.90;;;;;;5014393;28;20529;-73
2021/07/22 02:21:08;;;;;;;34.17;21.23;;;17.30;99.90;;;;;;5013611;28;20115;-73
2021/07/22 02:23:35;;;;;;;38.50;21.67;;;16.50;99.90;;;;;;5014333;28;20053;-73
2021/07/22 02:26:07;;;;;;;34.22;20.52;;;16.50;99.90;;;;;;5013770;28;20022;-73
2021/07/22 02:28:33;;;;;;;31.45;19.85;;;16.40;99.90;;;;;;5013661;28;20347;-73
2021/07/22 02:30:59;;;;;;;37.47;21.90;;;16.40;99.90;;;;;;5013756;28;20036;-74
2021/07/22 02:33:25;;;;;;;33.38;20.60;;;16.40;99.90;;;;;;5014740;28;20038;-73
2021/07/22 02:35:50;;;;;;;41.08;23.08;;;16.40;99.90;;;;;;5013232;28;20100;-73
2021/07/22 02:38:16;;;;;;;37.25;20.50;;;16.40;99.90;;;;;;5011069;28;20042;-73
2021/07/22 02:40:42;;;;;;;29.92;19.02;;;16.40;99.90;;;;;;5003400;28;20026;-72
2021/07/22 02:43:08;;;;;;;30.05;18.88;;;16.40;99.90;;;;;;5012969;28;20021;-73
2021/07/22 02:45:36;;;;;;;33.05;19.35;;;16.40;99.90;;;;;;5010229;28;20113;-73
2021/07/22 02:48:01;;;;;;;28.08;17.83;;;16.40;99.90;;;;;;4977453;28;20092;-73
2021/07/22 02:50:27;;;;;;;37.70;23.23;;;16.40;99.90;;;;;;4990252;28;20487;-73
2021/07/22 02:52:52;;;;;;;41.30;23.77;;;17.10;99.90;;;;;;4984344;28;20049;-72
2021/07/22 02:55:18;;;;;;;46.70;24.33;;;16.50;99.90;;;;;;4984707;28;20022;-73
2021/07/22 02:57:44;;;;;;;38.33;23.80;;;16.10;99.90;;;;;;4988792;28;20497;-73
2021/07/22 03:00:09;;;;;;;44.17;26.10;;;17.40;99.90;;;;;;4993981;28;20197;-72
2021/07/22 03:02:35;;;;;;;42.53;25.35;;;16.50;99.90;;;;;;4992621;28;20030;-73
2021/07/22 03:05:01;;;;;;;46.85;25.30;;;16.50;99.90;;;;;;4979544;28;20505;-74
2021/07/22 03:07:26;;;;;;;41.28;25.27;;;16.40;99.90;;;;;;4993896;28;20041;-72
2021/07/22 03:09:52;;;;;;;43.25;24.92;;;16.50;99.90;;;;;;4992374;28;20031;-72
2021/07/22 03:12:17;;;;;;;43.28;25.38;;;16.40;99.90;;;;;;5008557;28;20099;-71
2021/07/22 03:14:43;;;;;;;41.78;24.85;;;17.10;99.90;;;;;;5013109;28;20474;-74
2021/07/22 03:17:08;;;;;;;48.63;26.00;;;16.40;99.90;;;;;;5012526;28;20038;-73
2021/07/22 03:19:34;;;;;;;45.03;24.58;;;17.30;99.90;;;;;;5013150;28;20039;-74
2021/07/22 03:22:00;;;;;;;46.92;26.83;;;16.40;99.90;;;;;;4998956;28;20032;-73
2021/07/22 03:24:25;;;;;;;44.78;25.35;;;16.40;99.90;;;;;;5012269;28;20021;-73
2021/07/22 03:26:52;;;;;;;56.55;27.52;;;16.40;99.90;;;;;;5012731;28;20516;-72
2021/07/22 03:29:17;;;;;;;49.50;28.08;;;16.40;99.90;;;;;;5012821;28;20499;-74
2021/07/22 03:31:43;;;;;;;45.65;26.50;;;16.30;99.90;;;;;;5012199;28;20029;-73
2021/07/22 03:34:09;;;;;;;46.88;25.65;;;16.40;99.90;;;;;;5012726;28;20025;-73
2021/07/22 03:36:35;;;;;;;48.45;26.75;;;16.40;99.90;;;;;;5012686;28;20044;-73
2021/07/22 03:39:00;;;;;;;45.42;27.80;;;16.40;99.90;;;;;;5011474;28;20367;-73
2021/07/22 03:41:29;;;;;;;42.42;26.75;;;16.40;99.90;;;;;;5012786;28;20087;-73
2021/07/22 03:43:54;;;;;;;46.22;27.52;;;16.40;99.90;;;;;;5013374;28;20050;-72
2021/07/22 03:46:20;;;;;;;45.55;26.75;;;16.10;99.90;;;;;;5012328;28;20017;-73
2021/07/22 03:48:46;;;;;;;58.15;28.88;;;16.60;99.90;;;;;;4998571;28;20014;-73
2021/07/22 03:51:11;;;;;;;48.08;28.02;;;16.30;99.90;;;;;;5011895;28;20021;-73
2021/07/22 03:53:37;;;;;;;49.92;27.10;;;16.70;99.90;;;;;;5012606;28;20026;-73
2021/07/22 03:56:03;;;;;;;55.30;28.67;;;16.20;99.90;;;;;;4998083;28;20056;-72
2021/07/22 03:58:28;;;;;;;51.03;27.85;;;16.20;99.90;;;;;;5012020;28;20584;-73
2021/07/22 04:00:57;;;;;;;48.47;27.70;;;16.20;99.90;;;;;;5012666;28;20140;-74
2021/07/22 04:03:23;;;;;;;49.38;29.45;;;16.10;99.90;;;;;;5012619;28;20052;-72
2021/07/22 04:05:49;;;;;;;48.10;27.73;;;16.50;99.90;;;;;;5011582;28;20104;-73
2021/07/22 04:08:14;;;;;;;46.33;27.67;;;16.10;99.90;;;;;;5012283;28;20070;-73
2021/07/22 04:10:40;;;;;;;50.92;27.30;;;16.10;99.90;;;;;;5012803;28;20057;-73
2021/07/22 04:13:06;;;;;;;50.30;26.55;;;16.00;99.90;;;;;;5011655;28;20497;-73
2021/07/22 04:15:32;;;;;;;49.15;24.63;;;16.10;99.90;;;;;;5012307;28;20029;-73
2021/07/22 04:17:58;;;;;;;46.30;25.77;;;16.00;99.90;;;;;;5011960;28;20025;-73
2021/07/22 04:20:25;;;;;;;43.70;24.05;;;16.00;99.90;;;;;;5011393;28;20398;-73
2021/07/22 04:22:52;;;;;;;35.25;23.60;;;16.00;99.90;;;;;;5012243;28;20470;-74
2021/07/22 04:25:18;;;;;;;45.50;23.58;;;16.00;99.90;;;;;;5012295;28;20116;-72
2021/07/22 04:27:44;;;;;;;39.30;23.25;;;16.10;99.90;;;;;;5011292;28;20053;-74
2021/07/22 04:30:10;;;;;;;43.55;23.80;;;16.10;99.90;;;;;;5011769;28;20026;-72
2021/07/22 04:32:36;;;;;;;36.03;21.60;;;16.10;99.90;;;;;;5012119;28;20092;-72
2021/07/22 04:35:03;;;;;;;35.00;22.85;;;16.10;99.90;;;;;;5010854;28;20026;-73
2021/07/22 04:37:29;;;;;;;34.45;21.23;;;16.10;99.90;;;;;;5012307;28;20473;-72
2021/07/22 04:39:54;;;;;;;33.00;21.77;;;16.10;99.90;;;;;;5011605;28;20037;-72
2021/07/22 04:42:20;;;;;;;32.55;21.40;;;16.20;99.90;;;;;;5011386;28;20436;-72
2021/07/22 04:44:45;;;;;;;35.70;21.30;;;16.20;99.90;;;;;;5011890;28;20022;-73
2021/07/22 04:47:11;;;;;;;37.38;22.02;;;16.20;99.90;;;;;;5011939;28;20366;-73
2021/07/22 04:49:36;;;;;;;34.83;21.45;;;16.20;99.90;;;;;;5011088;28;20426;-72
2021/07/22 04:52:02;;;;;;;31.33;20.17;;;16.20;99.90;;;;;;5011077;28;20569;-73
2021/07/22 04:54:28;;;;;;;43.70;21.05;;;16.20;99.90;;;;;;5007191;28;20077;-73
2021/07/22 04:56:53;;;;;;;32.08;21.55;;;16.20;99.90;;;;;;5002159;28;20072;-74
2021/07/22 04:59:19;;;;;;;33.53;20.20;;;16.30;99.90;;;;;;5011799;28;20075;-73
2021/07/22 05:01:44;;;;;;;27.73;19.55;;;16.30;99.90;;;;;;5010934;28;20188;-73
2021/07/22 05:04:17;;;;;;;32.17;20.05;;;16.50;99.90;;;;;;5012042;28;20025;-73
2021/07/22 05:06:43;;;;;;;29.52;19.00;;;16.30;99.90;;;;;;5012117;28;20022;-73
2021/07/22 05:09:09;;;;;;;24.23;18.00;;;16.30;99.90;;;;;;5011216;28;20021;-74
2021/07/22 05:11:40;;;;;;;27.63;18.98;;;16.30;99.90;;;;;;5011614;28;20042;-74
2021/07/22 05:14:06;;;;;;;30.50;19.85;;;16.40;99.90;;;;;;5011523;28;20130;-73
2021/07/22 05:16:31;;;;;;;32.05;18.17;;;16.30;99.90;;;;;;5011227;28;20034;-73
2021/07/22 05:18:57;;;;;;;29.42;19.02;;;16.40;99.90;;;;;;5011457;28;20062;-73
2021/07/22 05:21:23;;;;;;;31.15;20.15;;;16.40;99.90;;;;;;5011869;28;20049;-73
2021/07/22 05:23:50;;;;;;;31.10;20.33;;;16.50;99.90;;;;;;5011289;28;20014;-74
2021/07/22 05:26:16;;;;;;;31.67;18.95;;;16.60;99.90;;;;;;5012552;28;20026;-73
2021/07/22 05:28:41;;;;;;;29.88;18.70;;;16.60;99.90;;;;;;5015387;28;20038;-72
2021/07/22 05:31:11;;;;;;;29.90;19.23;;;16.70;99.90;;;;;;5014231;28;20479;-74
2021/07/22 05:33:38;;;;;;;26.45;17.50;;;16.70;99.90;;;;;;5014871;28;20026;-73
2021/07/22 05:36:05;;;;;;;27.08;18.42;;;16.70;99.90;;;;;;5015147;28;20075;-73
2021/07/22 05:38:31;;;;;;;25.27;16.70;;;16.80;99.90;;;;;;5014299;28;20473;-73
2021/07/22 05:41:04;;;;;;;27.30;17.77;;;16.90;99.90;;;;;;5014558;28;20492;-73
2021/07/22 05:43:31;;;;;;;25.88;16.95;;;16.90;99.90;;;;;;5014913;28;20088;-73
2021/07/22 05:45:56;;;;;;;24.45;16.45;;;17.00;99.90;;;;;;5013639;28;20080;-73
2021/07/22 05:48:22;;;;;;;26.38;18.50;;;17.10;99.90;;;;;;5015039;28;20486;-73
2021/07/22 05:50:49;;;;;;;23.63;17.05;;;17.00;99.90;;;;;;5013803;28;20029;-73
2021/07/22 05:53:15;;;;;;;29.75;17.45;;;17.10;99.90;;;;;;5014610;28;20037;-73
2021/07/22 05:55:41;;;;;;;26.73;17.75;;;17.20;99.90;;;;;;5000876;28;20026;-73
2021/07/22 05:58:06;;;;;;;29.00;16.80;;;17.20;99.90;;;;;;5013899;28;20037;-73
2021/07/22 06:00:32;;;;;;;21.20;16.35;;;17.30;99.90;;;;;;5014347;28;20041;-72
2021/07/22 06:02:57;;;;;;;26.48;16.98;;;17.30;99.90;;;;;;5014563;28;20037;-72
2021/07/22 06:05:23;;;;;;;26.08;17.27;;;17.50;99.90;;;;;;5013975;28;20022;-74
2021/07/22 06:07:49;;;;;;;25.80;17.88;;;17.50;99.90;;;;;;5014366;28;20022;-72
2021/07/22 06:10:14;;;;;;;24.67;17.10;;;17.60;99.90;;;;;;5014633;28;20037;-73
2021/07/22 06:12:41;;;;;;;27.15;17.58;;;17.60;99.90;;;;;;5013656;28;20478;-73
2021/07/22 06:15:07;;;;;;;22.83;17.23;;;17.70;99.90;;;;;;5014196;28;20117;-73
2021/07/22 06:17:37;;;;;;;26.02;18.02;;;17.70;99.90;;;;;;5014596;28;20028;-72
2021/07/22 06:20:06;;;;;;;28.57;16.93;;;18.10;99.90;;;;;;5013146;28;20118;-74
2021/07/22 06:22:31;;;;;;;27.23;18.20;;;17.90;99.90;;;;;;5014427;28;20257;-73
2021/07/22 06:24:57;;;;;;;24.73;18.08;;;18.40;99.90;;;;;;4996263;28;20106;-73
2021/07/22 06:27:23;;;;;;;24.52;17.95;;;18.00;99.90;;;;;;5013458;28;20045;-73
2021/07/22 06:29:49;;;;;;;29.55;19.15;;;18.00;99.90;;;;;;5013541;28;20108;-72
2021/07/22 06:32:15;;;;;;;28.40;17.65;;;18.00;99.90;;;;;;5014135;28;20500;-73
2021/07/22 06:34:40;;;;;;;26.15;17.60;;;18.10;99.90;;;;;;5013382;28;20101;-74
2021/07/22 06:37:06;;;;;;;23.30;16.25;;;18.50;99.90;;;;;;5013374;28;20067;-73
2021/07/22 06:39:35;;;;;;;24.92;18.17;;;18.30;99.90;;;;;;5013004;28;20049;-72
2021/07/22 06:42:04;;;;;;;28.25;18.00;;;18.30;99.90;;;;;;5012775;28;20034;-73
2021/07/22 06:44:29;;;;;;;29.13;17.45;;;18.30;99.90;;;;;;5013770;28;20042;-73
2021/07/22 06:46:55;;;;;;;20.13;15.65;;;18.50;99.90;;;;;;5013625;28;20034;-73
2021/07/22 06:49:21;;;;;;;25.55;17.60;;;18.40;99.90;;;;;;5013899;28;20025;-74
2021/07/22 06:51:51;;;;;;;20.58;15.18;;;18.40;99.90;;;;;;5013723;28;20025;-74
2021/07/22 06:54:18;;;;;;;22.90;15.98;;;18.50;99.90;;;;;;4997489;28;20034;-73
2021/07/22 06:56:43;;;;;;;22.20;16.83;;;18.50;99.90;;;;;;5002359;28;20025;-73
2021/07/22 06:59:09;;;;;;;27.83;16.83;;;18.60;99.90;;;;;;5014150;28;20037;-74
2021/07/22 07:01:35;;;;;;;21.10;16.38;;;18.70;99.90;;;;;;5013471;28;20053;-74
2021/07/22 07:04:02;;;;;;;25.35;17.50;;;18.80;99.90;;;;;;5013418;28;20028;-74
2021/07/22 07:06:28;;;;;;;25.10;17.92;;;18.90;99.90;;;;;;5013476;28;20030;-73
2021/07/22 07:08:53;;;;;;;27.55;18.23;;;19.00;99.90;;;;;;5012424;28;20129;-74
2021/07/22 07:11:19;;;;;;;26.75;17.83;;;19.00;99.90;;;;;;5012915;28;20073;-72
2021/07/22 07:13:45;;;;;;;25.42;18.48;;;19.00;99.90;;;;;;5013458;28;20049;-73
2021/07/22 07:16:10;;;;;;;24.23;18.27;;;19.10;99.90;;;;;;5012748;28;20084;-73
2021/07/22 07:18:36;;;;;;;28.05;18.13;;;19.00;99.90;;;;;;5013402;28;20439;-73
2021/07/22 07:21:05;;;;;;;27.20;18.52;;;19.80;99.90;;;;;;5013072;28;20446;-73
2021/07/22 07:23:34;;;;;;;26.65;18.65;;;19.20;99.90;;;;;;5012202;28;20014;-74
2021/07/22 07:26:00;;;;;;;24.40;19.25;;;19.20;99.90;;;;;;5013105;28;20096;-73
2021/07/22 07:28:26;;;;;;;21.15;17.23;;;19.20;99.90;;;;;;5013760;28;20112;-73
2021/07/22 07:30:53;;;;;;;26.52;18.08;;;19.20;99.90;;;;;;5012748;28;20033;-73
2021/07/22 07:33:18;;;;;;;29.58;17.92;;;19.20;99.90;;;;;;5013337;28;20109;-75
2021/07/22 07:35:44;;;;;;;24.45;18.15;;;19.50;99.90;;;;;;5013408;28;20544;-73
2021/07/22 07:38:10;;;;;;;24.50;17.25;;;19.20;99.90;;;;;;5012826;28;20374;-73
2021/07/22 07:40:36;;;;;;;25.33;16.40;;;18.80;99.90;;;;;;5012939;28;20095;-73
2021/07/22 07:43:02;;;;;;;19.58;14.68;;;19.60;99.90;;;;;;5013162;28;20022;-73
2021/07/22 07:45:29;;;;;;;16.70;12.30;;;19.30;99.90;;;;;;5009293;28;20433;-73
2021/07/22 07:47:55;;;;;;;15.70;12.68;;;19.40;99.90;;;;;;5003266;28;20026;-73
2021/07/22 07:50:20;;;;;;;17.52;11.82;;;19.50;99.90;;;;;;5012239;28;20030;-74
2021/07/22 07:52:46;;;;;;;15.65;11.07;;;19.60;99.90;;;;;;5012471;28;20496;-73
2021/07/22 07:55:13;;;;;;;13.50;10.30;;;19.80;99.90;;;;;;5002541;28;20117;-74
2021/07/22 07:57:39;;;;;;;20.38;11.57;;;20.10;99.90;;;;;;5008176;28;20500;-75
2021/07/22 08:00:06;;;;;;;12.10;8.98;;;20.40;99.90;;;;;;5011425;28;20046;-74
2021/07/22 08:02:32;;;;;;;9.55;8.55;;;20.70;99.90;;;;;;5012707;28;20113;-73
2021/07/22 08:04:59;;;;;;;15.90;10.00;;;21.00;99.90;;;;;;5011790;28;20046;-73
2021/07/22 08:07:26;;;;;;;13.27;7.80;;;21.30;99.90;;;;;;5012461;28;20026;-74
2021/07/22 08:09:52;;;;;;;11.63;8.68;;;21.50;99.90;;;;;;5012677;28;20018;-74
2021/07/22 08:12:18;;;;;;;14.48;10.30;;;21.50;99.90;;;;;;5013181;28;20161;-74
2021/07/22 08:14:44;;;;;;;10.23;9.10;;;21.20;99.90;;;;;;5013847;28;20022;-74
2021/07/22 08:17:15;;;;;;;15.68;11.30;;;21.00;99.90;;;;;;5013363;28;20553;-72
2021/07/22 08:19:41;;;;;;;11.75;10.55;;;20.90;99.90;;;;;;5012917;28;20026;-73
2021/07/22 08:22:10;;;;;;;11.07;9.98;;;20.70;99.90;;;;;;5013815;28;20025;-73
2021/07/22 08:24:35;;;;;;;16.20;11.38;;;20.70;99.90;;;;;;5013974;28;20036;-73
2021/07/22 08:27:01;;;;;;;12.75;11.43;;;20.70;99.90;;;;;;5012594;28;20022;-73
2021/07/22 08:29:27;;;;;;;16.35;10.68;;;20.70;99.90;;;;;;5013582;28;20018;-73
2021/07/22 08:31:52;;;;;;;14.13;9.73;;;20.60;99.90;;;;;;5014384;28;20025;-73
2021/07/22 08:34:19;;;;;;;10.30;9.00;;;20.60;99.90;;;;;;5013886;28;20022;-74
2021/07/22 08:36:45;;;;;;;16.73;10.65;;;20.60;99.90;;;;;;5012597;28;20482;-75
2021/07/22 08:39:11;;;;;;;12.73;10.07;;;20.70;99.90;;;;;;5013583;28;20032;-74
2021/07/22 08:41:41;;;;;;;10.82;9.82;;;20.80;99.90;;;;;;5013143;28;20045;-74
2021/07/22 08:44:08;;;;;;;12.82;10.73;;;20.90;99.90;;;;;;5013333;28;20030;-74
2021/07/22 08:46:34;;;;;;;21.38;11.68;;;20.90;99.90;;;;;;5013495;28;20113;-73
2021/07/22 08:49:00;;;;;;;15.30;11.13;;;20.80;99.90;;;;;;5013162;28;20018;-73
2021/07/22 08:51:27;;;;;;;17.75;10.73;;;20.90;99.90;;;;;;5012537;28;20065;-73
2021/07/22 08:53:53;;;;;;;13.73;10.43;;;20.90;99.90;;;;;;5012090;28;20104;-73
2021/07/22 08:56:25;;;;;;;12.23;10.90;;;20.90;99.90;;;;;;4999157;28;20034;-73
2021/07/22 08:58:51;;;;;;;14.07;11.27;;;21.00;99.90;;;;;;5013296;28;20035;-73
2021/07/22 09:01:18;;;;;;;16.30;11.85;;;21.00;99.90;;;;;;5012908;28;20029;-74
2021/07/22 09:03:43;;;;;;;13.07;10.98;;;21.10;99.90;;;;;;5016193;28;20026;-73
2021/07/22 09:06:16;;;;;;;12.90;9.68;;;21.10;99.90;;;;;;5017138;28;20033;-74
2021/07/22 09:08:43;;;;;;;13.88;8.82;;;21.20;99.90;;;;;;5016499;28;20096;-73
2021/07/22 09:11:10;;;;;;;13.02;9.30;;;21.30;99.90;;;;;;5016882;28;20034;-73
2021/07/22 09:13:36;;;;;;;10.90;9.50;;;21.30;99.90;;;;;;5016835;28;20375;-73
2021/07/22 09:16:03;;;;;;;10.95;9.82;;;21.40;99.90;;;;;;5016095;28;20045;-74
2021/07/22 09:18:36;;;;;;;16.58;10.48;;;21.20;99.90;;;;;;5002659;28;20037;-72
2021/07/22 09:21:20;;;;;;;12.95;9.77;;;21.40;99.90;;;;;;5016721;28;20050;-74
2021/07/22 09:24:05;;;;;;;12.07;9.40;;;21.30;99.90;;;;;;5004387;28;20022;-73
2021/07/22 09:26:36;;;;;;;9.68;8.52;;;21.40;99.90;;;;;;5016761;28;20022;-72
2021/07/22 09:29:07;;;;;;;13.77;9.00;;;21.50;99.90;;;;;;5015812;28;20037;-74
2021/07/22 09:31:33;;;;;;;10.27;8.38;;;21.60;99.90;;;;;;5016713;28;20029;-73
2021/07/22 09:33:59;;;;;;;10.85;8.13;;;21.50;99.90;;;;;;5015956;28;20018;-73
2021/07/22 09:36:24;;;;;;;8.32;7.45;;;21.50;99.90;;;;;;5016160;28;20404;-73
2021/07/22 09:38:50;;;;;;;10.32;8.10;;;21.50;99.90;;;;;;5010753;28;20112;-74
2021/07/22 09:41:19;;;;;;;9.55;7.97;;;21.50;99.90;;;;;;5008019;28;20042;-73
2021/07/22 09:43:45;;;;;;;8.82;7.32;;;21.60;99.90;;;;;;5015717;28;20088;-73
2021/07/22 09:46:11;;;;;;;10.07;7.72;;;21.50;99.90;;;;;;5016492;28;20021;-72
2021/07/22 09:48:37;;;;;;;11.10;8.35;;;21.60;99.90;;;;;;5015922;28;20049;-72
2021/07/22 09:51:03;;;;;;;8.15;7.35;;;21.70;99.90;;;;;;5015104;28;20045;-75
2021/07/22 09:53:29;;;;;;;8.52;7.72;;;21.90;99.90;;;;;;5016646;28;20392;-74
2021/07/22 09:55:56;;;;;;;12.30;7.53;;;22.00;99.90;;;;;;5016517;28;20118;-75
2021/07/22 09:58:23;;;;;;;11.20;7.15;;;22.10;99.90;;;;;;5016210;28;20080;-73
2021/07/22 10:00:50;;;;;;;14.35;7.45;;;22.10;99.90;;;;;;5016029;28;20210;-73
2021/07/22 10:03:21;;;;;;;13.90;7.85;;;22.50;99.90;;;;;;5016385;28;20029;-73
2021/07/22 10:05:59;;;;;;;10.30;7.72;;;22.20;99.90;;;;;;5014637;28;20037;-73
2021/07/22 10:08:26;;;;;;;8.85;8.02;;;22.00;99.90;;;;;;5015676;28;20033;-74
2021/07/22 10:10:53;;;;;;;13.23;8.73;;;22.10;99.90;;;;;;5014647;28;20088;-73
2021/07/22 10:13:27;;;;;;;9.73;7.25;;;22.10;99.90;;;;;;5015203;28;20038;-72
2021/07/22 10:15:55;;;;;;;15.52;8.00;;;22.00;99.90;;;;;;5015681;28;20060;-74
2021/07/22 10:18:23;;;;;;;8.90;8.10;;;21.90;99.90;;;;;;5015176;28;20021;-73
2021/07/22 10:20:54;;;;;;;9.98;7.40;;;21.70;99.90;;;;;;5015873;28;20045;-73
2021/07/22 10:23:20;;;;;;;7.97;7.10;;;21.80;99.90;;;;;;5016841;28;20084;-73
2021/07/22 10:25:49;;;;;;;9.00;7.32;;;21.90;99.90;;;;;;5014572;28;20034;-74
2021/07/22 10:28:16;;;;;;;10.90;7.35;;;22.00;99.90;;;;;;5014782;28;20111;-72
2021/07/22 10:30:42;;;;;;;9.25;7.68;;;22.10;99.90;;;;;;5015085;28;20022;-73
2021/07/22 10:33:08;;;;;;;9.00;7.78;;;22.20;99.90;;;;;;5014736;28;20037;-73
2021/07/22 10:35:34;;;;;;;7.82;7.05;;;22.20;99.90;;;;;;5016371;28;20509;-73
2021/07/22 10:38:13;;;;;;;10.05;7.50;;;22.30;99.90;;;;;;5016351;28;20026;-74
2021/07/22 10:40:55;;;;;;;7.18;6.47;;;22.30;99.90;;;;;;5015842;28;20034;-73
2021/07/22 10:43:30;;;;;;;7.13;6.43;;;22.50;99.90;;;;;;5015942;28;20025;-73
2021/07/22 10:45:56;;;;;;;7.28;6.55;;;22.70;99.90;;;;;;5015158;28;20410;-73
2021/07/22 10:48:28;;;;;;;7.53;6.82;;;22.90;99.90;;;;;;5015269;28;20038;-75
2021/07/22 10:50:53;;;;;;;6.20;5.32;;;23.20;99.90;;;;;;5001580;28;20365;-74
2021/07/22 10:53:43;;;;;;;5.97;5.38;;;23.40;99.90;;;;;;5014660;28;20029;-73
2021/07/22 10:56:09;;;;;;;8.13;5.00;;;23.60;99.30;;;;;;4999407;28;20022;-74
2021/07/22 10:58:35;;;;;;;5.38;4.88;;;23.50;97.70;;;;;;5015386;28;20117;-74
2021/07/22 11:01:07;;;;;;;6.43;5.68;;;23.30;97.20;;;;;;5013430;28;20548;-73
2021/07/22 11:03:53;;;;;;;7.97;5.07;;;22.80;96.80;;;;;;5015120;28;20033;-73
2021/07/22 11:06:18;;;;;;;5.45;4.95;;;22.90;98.10;;;;;;5000521;28;20035;-73
2021/07/22 11:08:44;;;;;;;6.53;5.80;;;23.10;98.10;;;;;;5013952;28;20193;-74
2021/07/22 11:11:15;;;;;;;10.55;6.20;;;23.20;96.70;;;;;;5014417;28;20044;-74
2021/07/22 11:13:49;;;;;;;6.07;5.47;;;23.20;97.00;;;;;;5015055;28;20118;-74
2021/07/22 11:16:25;;;;;;;5.55;5.10;;;23.10;97.10;;;;;;5014092;28;20030;-74
2021/07/22 11:18:53;;;;;;;5.68;5.18;;;23.20;97.30;;;;;;5014576;28;20052;-73
2021/07/22 11:21:23;;;;;;;8.60;7.22;;;23.00;95.90;;;;;;5013556;28;20548;-73
2021/07/22 11:23:56;;;;;;;7.78;5.97;;;22.80;95.80;;;;;;5013972;28;20018;-73
2021/07/22 11:26:23;;;;;;;5.78;5.28;;;22.90;96.70;;;;;;5014266;28;20025;-73
2021/07/22 11:28:49;;;;;;;6.45;5.07;;;22.90;96.00;;;;;;5013935;28;20374;-74
2021/07/22 11:31:15;;;;;;;5.82;4.85;;;22.70;96.10;;;;;;5014539;28;20042;-73
2021/07/22 11:33:41;;;;;;;5.68;5.15;;;22.70;96.70;;;;;;5014006;28;20524;-74
2021/07/22 11:36:12;;;;;;;6.10;5.05;;;22.80;96.80;;;;;;5012992;28;20026;-74
2021/07/22 11:38:39;;;;;;;7.55;4.97;;;22.80;96.70;;;;;;5010624;28;20076;-74
2021/07/22 11:41:14;;;;;;;5.82;4.75;;;22.90;96.90;;;;;;5003891;28;20222;-74
2021/07/22 11:43:45;;;;;;;5.10;4.60;;;23.00;96.30;;;;;;5013695;28;20018;-73
2021/07/22 11:46:41;;;;;;;10.43;5.07;;;23.30;96.20;;;;;;5014170;28;20390;-73
2021/07/22 11:49:15;;;;;;;5.88;5.32;;;23.50;95.50;;;;;;5003542;28;20663;-73
2021/07/22 11:51:46;;;;;;;5.63;5.15;;;23.70;95.50;;;;;;5007243;28;20026;-74
2021/07/22 11:54:13;;;;;;;8.85;5.55;;;23.80;95.10;;;;;;5013011;28;20026;-74
2021/07/22 11:56:39;;;;;;;7.40;5.10;;;23.90;94.50;;;;;;5001908;28;20038;-74
2021/07/22 11:59:08;;;;;;;5.95;5.45;;;23.90;94.70;;;;;;5014201;28;20040;-74
2021/07/22 12:01:45;;;;;;;7.80;6.30;;;24.00;94.30;;;;;;5014059;28;20034;-74
2021/07/22 12:04:11;;;;;;;6.38;5.85;;;23.80;94.00;;;;;;5013017;28;20026;-73
2021/07/22 12:06:50;;;;;;;11.65;6.55;;;23.90;94.40;;;;;;5013372;28;20028;-73
2021/07/22 12:09:15;;;;;;;6.85;6.25;;;24.10;94.30;;;;;;5013295;28;20032;-73
2021/07/22 12:11:50;;;;;;;7.78;6.15;;;24.30;94.00;;;;;;5013176;28;20041;-73
2021/07/22 12:14:25;;;;;;;6.97;5.88;;;24.20;93.80;;;;;;5014023;28;20560;-73
2021/07/22 12:16:52;;;;;;;6.60;5.85;;;23.80;94.20;;;;;;5000274;28;20018;-72
2021/07/22 12:19:22;;;;;;;7.82;6.10;;;23.60;94.30;;;;;;5000912;28;20389;-73
2021/07/22 12:22:25;;;;;;;8.00;5.88;;;23.80;94.40;;;;;;5012755;28;20084;-73
2021/07/22 12:25:01;;;;;;;7.63;5.90;;;24.10;93.80;;;;;;5013398;28;20026;-74
2021/07/22 12:27:27;;;;;;;10.98;5.53;;;24.00;93.50;;;;;;5014770;28;20030;-73
2021/07/22 12:29:53;;;;;;;8.25;5.57;;;23.70;93.90;;;;;;5013533;28;20030;-73
2021/07/22 12:32:19;;;;;;;7.50;6.13;;;23.90;94.50;;;;;;5006470;28;20033;-73